Terminal Aerodrome Forecast
Issued by NWS Charleston, WV

Current Version | Previous Version | Graphics & Text | Print | Product List | Glossary On
Versions: 1 2 3 4 5 6 7 8 9 10 11 12 13 14 15 16 17 18 19 20 21
000
FTUS41 KRLX 312322
TAFPKB
TAF
KPKB 312322Z 0100/0124 31004KT P6SM SCT050
     FM010500 00000KT 5SM HZ SCT050
     FM010600 00000KT 1SM HZ SCT003
     FM010800 00000KT 1/4SM FG VV001
     FM011200 00000KT 3SM HZ SCT050
     FM011300 24005KT P6SM SCT050=

USA.gov is the U.S. government's official web portal to all federal, state and local government web resources and services.